Time;durP1;ratioP1;P1;durP2;ratioP2;P2;SDS_P1;SDS_P2;PMS_P1;PMS_P2;Temp;Humidity;BMP_temperature;BMP_pressure;BME280_temperature;BME280_humidity;BME280_pressure;Samples;Min_cycle;Max_cycle;Signal;HPM_P1;HPM_P2
2022/07/16 00:05:30;;;;;;;3.88;2.50;;;;;;;20.32;46.18;96292.75;10287379;28;99666;-69
2022/07/16 00:10:35;;;;;;;5.13;2.60;;;;;;;20.37;45.17;96285.81;10296331;28;97016;-69
2022/07/16 00:15:38;;;;;;;4.45;2.80;;;;;;;20.28;46.02;96291.53;10289298;28;98871;-69
2022/07/16 00:20:41;;;;;;;5.03;2.90;;;;;;;19.96;46.90;96300.16;10286939;28;96796;-69
2022/07/16 00:25:45;;;;;;;3.97;2.95;;;;;;;19.67;48.63;96300.53;10269665;28;98624;-69
2022/07/16 00:30:48;;;;;;;4.13;3.10;;;;;;;19.52;48.74;96309.50;10268753;28;96824;-69
2022/07/16 00:35:51;;;;;;;4.65;2.90;;;;;;;19.34;49.78;96306.63;10270971;28;97067;-69
2022/07/16 00:40:55;;;;;;;5.90;3.05;;;;;;;19.19;50.06;96307.63;10270986;28;96946;-69
2022/07/16 00:45:58;;;;;;;3.63;2.83;;;;;;;19.20;49.93;96300.47;10269296;28;97283;-69
2022/07/16 00:51:08;;;;;;;3.80;2.67;;;;;;;19.23;49.79;96308.84;10270308;28;96872;-69
2022/07/16 00:56:14;;;;;;;3.55;2.47;;;;;;;19.25;49.05;96298.06;10267161;28;99425;-68
2022/07/16 01:01:17;;;;;;;3.53;2.90;;;;;;;19.32;49.76;96292.78;10276355;28;97492;-69
2022/07/16 01:06:22;;;;;;;4.50;3.03;;;;;;;19.23;49.50;96303.53;10292710;28;98948;-69
2022/07/16 01:11:27;;;;;;;3.67;2.75;;;;;;;19.08;50.17;96300.25;10288794;28;96847;-69
2022/07/16 01:16:31;;;;;;;4.15;3.08;;;;;;;18.70;50.62;96308.63;10301517;28;97040;-69
2022/07/16 01:21:34;;;;;;;3.25;2.67;;;;;;;18.59;51.05;96302.06;10300030;28;99378;-69
2022/07/16 01:26:38;;;;;;;4.55;3.17;;;;;;;18.57;51.69;96301.47;10302470;28;96660;-68
2022/07/16 01:31:41;;;;;;;3.30;3.00;;;;;;;18.19;52.56;96301.06;10293206;28;97221;-69
2022/07/16 01:36:53;;;;;;;3.83;3.00;;;;;;;18.18;51.82;96296.75;10310490;28;96797;-69
2022/07/16 01:41:59;;;;;;;5.85;3.47;;;;;;;18.33;52.33;96299.31;10303645;28;98753;-68
2022/07/16 01:47:02;;;;;;;4.80;3.53;;;;;;;18.26;52.54;96300.06;10307554;28;96745;-70
2022/07/16 01:52:08;;;;;;;3.83;2.97;;;;;;;18.15;52.71;96308.56;10302137;28;99100;-69
2022/07/16 01:57:12;;;;;;;3.90;3.00;;;;;;;18.11;52.73;96302.81;10303494;28;96894;-69
2022/07/16 02:02:15;;;;;;;;;;;;;;;18.15;52.03;96302.44;10300390;28;98296;-69
2022/07/16 02:07:19;;;;;;;3.95;3.03;;;;;;;17.89;53.12;96302.06;10305188;28;97627;-69
2022/07/16 02:12:23;;;;;;;5.00;3.37;;;;;;;17.70;53.64;96302.69;10303508;28;96808;-69
2022/07/16 02:17:26;;;;;;;5.60;3.30;;;;;;;17.70;53.85;96298.22;10304320;28;97579;-69
2022/07/16 02:22:29;;;;;;;4.82;3.33;;;;;;;17.75;53.17;96295.84;10310752;28;97175;-69
2022/07/16 02:27:33;;;;;;;4.95;3.38;;;;;;;17.87;52.82;96295.31;10303386;28;97889;-69
2022/07/16 02:32:36;;;;;;;4.25;2.92;;;;;;;17.90;52.87;96292.31;10314098;28;97405;-69
2022/07/16 02:37:39;;;;;;;5.32;3.45;;;;;;;17.83;53.43;96299.34;10305913;28;96891;-68
2022/07/16 02:42:43;;;;;;;5.55;3.78;;;;;;;17.75;53.66;96298.47;10299554;28;97409;-69
2022/07/16 02:47:46;;;;;;;3.83;3.42;;;;;;;17.32;55.12;96293.22;10294033;28;98753;-69
2022/07/16 02:52:50;;;;;;;4.47;3.53;;;;;;;17.19;55.74;96288.63;10306390;28;98849;-68
2022/07/16 02:57:55;;;;;;;4.77;3.20;;;;;;;16.98;56.27;96286.78;10313278;28;96826;-69
2022/07/16 03:02:58;;;;;;;4.70;3.08;;;;;;;16.73;57.21;96298.66;10298963;28;96865;-69
2022/07/16 03:08:01;;;;;;;4.97;3.37;;;;;;;16.78;55.33;96291.03;10306373;28;97777;-68
2022/07/16 03:13:06;;;;;;;4.18;2.88;;;;;;;16.91;55.51;96293.81;10303266;28;96754;-68
2022/07/16 03:18:09;;;;;;;6.32;3.00;;;;;;;17.06;54.69;96295.59;10305165;28;96883;-69
2022/07/16 03:23:12;;;;;;;4.85;3.00;;;;;;;17.16;53.82;96304.00;10305976;28;97279;-68
2022/07/16 03:28:16;;;;;;;5.38;3.03;;;;;;;17.24;53.90;96295.97;10304691;28;97800;-68
2022/07/16 03:33:19;;;;;;;4.28;2.85;;;;;;;17.28;53.85;96291.13;10293963;28;97917;-69
2022/07/16 03:43:46;;;;;;;4.60;3.75;;;;;;;17.15;54.83;96305.84;10294345;28;97511;-69
2022/07/16 03:48:49;;;;;;;5.00;3.50;;;;;;;16.91;55.20;96301.72;10295600;28;97770;-69
2022/07/16 03:53:53;;;;;;;3.85;3.15;;;;;;;16.82;55.72;96308.13;10297644;28;97128;-68
2022/07/16 03:58:57;;;;;;;4.72;3.10;;;;;;;16.76;55.75;96304.41;10315581;28;97567;-68
2022/07/16 04:04:00;;;;;;;4.10;3.55;;;;;;;16.69;56.15;96313.19;10300630;28;98570;-68
2022/07/16 04:09:03;;;;;;;5.20;3.33;;;;;;;16.44;56.88;96310.88;10302179;28;97258;-69
2022/07/16 04:14:08;;;;;;;5.20;3.15;;;;;;;16.45;56.10;96328.34;10296255;28;98328;-69
2022/07/16 04:19:10;;;;;;;7.38;3.40;;;;;;;16.52;56.09;96317.84;10295025;28;96808;-68
2022/07/16 04:24:13;;;;;;;3.47;3.00;;;;;;;16.54;56.56;96332.50;10292592;28;99315;-68
2022/07/16 04:29:17;;;;;;;5.13;3.38;;;;;;;16.52;56.31;96328.41;10304466;28;98880;-69
2022/07/16 04:34:20;;;;;;;4.80;2.70;;;;;;;16.47;56.31;96334.25;10299548;28;96756;-68
2022/07/16 04:39:23;;;;;;;5.30;3.30;;;;;;;16.46;55.97;96332.59;10301250;28;97309;-69
2022/07/16 04:44:28;;;;;;;5.53;3.00;;;;;;;16.54;55.43;96332.50;10291433;28;97100;-68
2022/07/16 04:49:30;;;;;;;4.10;3.05;;;;;;;16.71;55.48;96335.78;10297783;28;98198;-69
2022/07/16 04:54:34;;;;;;;4.82;3.10;;;;;;;16.89;55.36;96331.94;10302566;28;97005;-69
2022/07/16 04:59:38;;;;;;;3.83;3.05;;;;;;;16.92;55.38;96335.03;10295009;28;97579;-68
2022/07/16 05:04:41;;;;;;;6.45;3.05;;;;;;;17.05;55.41;96338.84;10295148;28;96808;-69
2022/07/16 05:09:44;;;;;;;4.25;2.83;;;;;;;17.20;54.87;96342.25;10303017;28;97769;-69
2022/07/16 05:14:48;;;;;;;5.18;3.10;;;;;;;17.32;55.06;96346.03;10308168;28;97609;-68
2022/07/16 05:19:51;;;;;;;3.42;3.00;;;;;;;17.41;55.42;96345.94;10308794;28;98379;-69
2022/07/16 05:24:54;;;;;;;4.22;3.15;;;;;;;17.56;54.96;96341.38;10309308;28;97619;-69
2022/07/16 05:29:58;;;;;;;3.63;2.80;;;;;;;17.75;54.75;96348.69;10304857;28;96770;-69
2022/07/16 05:35:01;;;;;;;5.32;2.70;;;;;;;17.94;54.68;96343.75;10294567;28;97722;-69
2022/07/16 05:40:06;;;;;;;5.28;3.05;;;;;;;18.16;54.28;96347.19;10291701;28;99063;-69
2022/07/16 05:45:11;;;;;;;4.40;3.15;;;;;;;18.31;53.84;96347.09;10293234;28;98875;-69
2022/07/16 05:50:14;;;;;;;4.22;2.95;;;;;;;18.43;53.58;96342.91;10295373;28;99204;-68
2022/07/16 05:55:17;;;;;;;4.20;3.22;;;;;;;18.56;53.31;96347.44;10291977;28;96853;-69
2022/07/16 06:00:21;;;;;;;3.65;2.90;;;;;;;18.60;52.23;96358.44;10294209;28;97489;-69
2022/07/16 06:05:25;;;;;;;5.45;3.10;;;;;;;18.75;51.90;96345.91;10295097;28;96924;-69
2022/07/16 06:10:28;;;;;;;5.85;3.03;;;;;;;18.86;51.58;96350.69;10298424;28;97642;-68
2022/07/16 06:15:32;;;;;;;5.93;3.50;;;;;;;19.02;52.51;96356.66;10297885;28;99583;-69
2022/07/16 06:20:35;;;;;;;7.82;3.85;;;;;;;19.18;52.16;96358.94;10304348;28;98903;-69
2022/07/16 06:25:40;;;;;;;4.70;3.45;;;;;;;19.30;52.52;96363.66;10298847;28;96744;-69
2022/07/16 06:30:44;;;;;;;4.30;3.42;;;;;;;19.53;52.75;96361.47;10304341;28;97693;-69
2022/07/16 06:35:47;;;;;;;3.83;2.80;;;;;;;19.72;51.38;96364.38;10312011;28;96878;-69
2022/07/16 06:40:51;;;;;;;3.97;2.60;;;;;;;19.97;50.24;96365.44;10315030;28;96947;-69
2022/07/16 09:20:57;;;;;;;3.50;2.40;;;;;;;22.89;42.49;96360.63;10384146;28;97995;-73
2022/07/16 09:26:02;;;;;;;4.85;2.63;;;;;;;23.22;42.21;96353.25;10374562;27;97157;-74
2022/07/16 09:31:05;;;;;;;5.72;2.53;;;;;;;23.53;41.45;96361.06;10370879;28;98593;-74
2022/07/16 09:36:13;;;;;;;2.97;2.20;;;;;;;23.83;41.32;96360.22;10355966;28;96902;-74
2022/07/16 09:41:16;;;;;;;5.82;3.08;;;;;;;24.06;41.21;96354.13;10370571;28;97628;-74
2022/07/16 09:46:20;;;;;;;2.45;2.20;;;;;;;24.27;40.46;96355.41;10367817;28;96874;-74
2022/07/16 09:51:27;;;;;;;8.35;2.85;;;;;;;24.40;40.00;96361.56;10370741;28;97903;-74
2022/07/16 09:56:29;;;;;;;7.18;2.50;;;;;;;24.36;39.78;96363.88;10370671;28;97059;-74
2022/07/16 10:01:33;;;;;;;4.00;2.50;;;;;;;24.39;39.81;96352.75;10371495;28;96875;-75
2022/07/16 10:06:37;;;;;;;4.40;2.80;;;;;;;24.56;39.69;96346.69;10370601;28;97403;-74
2022/07/16 10:11:43;;;;;;;3.13;2.55;;;;;;;24.84;38.92;96354.81;10370006;28;96841;-74
2022/07/16 10:16:46;;;;;;;4.38;2.90;;;;;;;24.99;38.42;96348.16;10366738;28;97354;-74
2022/07/16 10:22:16;;;;;;;5.73;2.80;;;;;;;25.01;38.39;96344.22;10370107;28;96877;-74
2022/07/16 10:27:25;;;;;;;4.85;2.67;;;;;;;25.13;38.53;96346.03;10367744;28;96917;-75
2022/07/16 10:32:28;;;;;;;5.53;2.70;;;;;;;25.21;38.50;96349.13;10337692;28;96867;-74
2022/07/16 10:37:33;;;;;;;6.07;2.70;;;;;;;25.33;37.99;96345.63;10339691;28;97276;-74
2022/07/16 10:42:36;;;;;;;3.97;2.50;;;;;;;25.44;37.65;96344.75;10340916;28;96792;-74
2022/07/16 10:47:45;;;;;;;8.73;2.90;;;;;;;25.50;37.19;96332.31;10341271;28;96990;-74
2022/07/16 10:52:52;;;;;;;5.13;2.70;;;;;;;25.66;37.30;96338.75;10341210;28;96927;-75
2022/07/16 10:57:55;;;;;;;5.82;2.75;;;;;;;25.84;36.91;96335.03;10333127;28;96779;-74
2022/07/16 11:03:01;;;;;;;5.37;2.33;;;;;;;25.96;36.68;96335.78;10340417;28;96742;-74
2022/07/16 11:08:22;;;;;;;4.60;2.45;;;;;;;25.97;37.45;96332.84;10338919;28;96793;-74
2022/07/16 11:13:25;;;;;;;7.47;2.88;;;;;;;26.12;36.87;96326.09;10334387;28;102008;-74
2022/07/16 11:18:36;;;;;;;3.10;2.30;;;;;;;26.39;36.01;96331.63;10331812;28;96796;-74
2022/07/16 11:23:51;;;;;;;2.80;2.10;;;;;;;26.53;35.50;96330.22;10334617;28;96890;-74
2022/07/16 11:28:56;;;;;;;6.40;2.05;;;;;;;26.73;35.25;96327.00;10340027;28;96910;-74
2022/07/16 11:34:02;;;;;;;4.38;2.30;;;;;;;26.74;34.77;96325.13;10339831;28;97020;-75
2022/07/16 11:39:07;;;;;;;3.15;2.22;;;;;;;26.75;35.04;96324.09;10339464;28;97018;-74
2022/07/16 11:44:13;;;;;;;4.50;2.20;;;;;;;26.78;35.01;96323.59;10338852;28;97131;-74
2022/07/16 11:49:24;;;;;;;5.57;2.17;;;;;;;26.93;34.29;96321.09;10339550;28;96860;-74
2022/07/16 11:54:29;;;;;;;3.25;2.08;;;;;;;27.19;33.61;96318.72;10338950;28;97469;-74
2022/07/16 11:59:33;;;;;;;3.10;2.08;;;;;;;27.40;33.11;96317.06;10338608;28;96909;-74
2022/07/16 12:04:39;;;;;;;4.28;1.98;;;;;;;27.56;32.43;96315.38;10337172;28;96783;-74
2022/07/16 12:09:46;;;;;;;4.53;2.05;;;;;;;27.67;32.07;96308.25;10329794;28;97165;-74
2022/07/16 12:14:51;;;;;;;3.80;2.10;;;;;;;27.82;32.02;96311.06;10334962;28;99019;-74
2022/07/16 12:20:19;;;;;;;3.58;2.20;;;;;;;27.88;31.85;96311.09;10335944;28;99607;-74
2022/07/16 12:25:41;;;;;;;2.55;2.08;;;;;;;28.01;31.94;96307.97;10336580;28;98486;-75
2022/07/16 12:30:50;;;;;;;2.65;2.10;;;;;;;28.19;31.76;96309.47;10333938;28;100551;-74
2022/07/16 12:36:00;;;;;;;3.55;1.88;;;;;;;27.96;32.24;96300.69;10345052;28;97044;-74
2022/07/16 12:41:07;;;;;;;3.58;2.45;;;;;;;28.13;31.89;96308.59;10337701;28;96995;-74
2022/07/16 12:46:11;;;;;;;3.85;2.03;;;;;;;28.27;31.44;96294.72;10329867;28;97228;-74
2022/07/16 12:51:15;;;;;;;;;;;;;;;28.35;31.82;96302.31;10331762;28;97464;-74
2022/07/16 13:01:40;;;;;;;3.58;2.30;;;;;;;28.68;31.70;96297.66;10328216;28;97206;-74
2022/07/16 13:06:46;;;;;;;3.25;2.03;;;;;;;29.18;31.04;96298.97;10331095;28;97567;-74
2022/07/16 13:11:52;;;;;;;4.30;2.58;;;;;;;29.29;31.23;96292.50;10327286;28;96946;-74
2022/07/16 13:16:55;;;;;;;3.95;2.15;;;;;;;29.30;30.59;96296.03;10323468;28;97741;-74
2022/07/16 13:21:58;;;;;;;3.20;2.33;;;;;;;29.24;30.49;96286.31;10328156;28;98903;-74
2022/07/16 13:27:02;;;;;;;5.47;2.15;;;;;;;29.58;29.83;96302.03;10331021;28;96803;-74
2022/07/16 13:32:22;;;;;;;5.82;2.22;;;;;;;29.81;29.88;96284.53;10335221;28;96879;-74
2022/07/16 13:37:25;;;;;;;4.20;2.10;;;;;;;30.03;29.92;96290.44;10329445;28;98387;-74
2022/07/16 13:42:30;;;;;;;3.40;2.00;;;;;;;30.24;29.74;96277.78;10332385;28;97306;-74
2022/07/16 13:47:33;;;;;;;3.70;2.03;;;;;;;30.11;29.67;96273.75;10329014;28;97682;-74
2022/07/16 13:52:36;;;;;;;3.35;2.20;;;;;;;30.18;29.93;96278.06;10328366;28;98783;-74
2022/07/16 14:03:02;;;;;;;;;;;;;;;30.54;29.24;96270.69;10330592;28;96927;-74
2022/07/16 14:08:05;;;;;;;3.90;2.15;;;;;;;31.16;28.52;96268.56;10340793;28;97593;-74
2022/07/16 14:13:10;;;;;;;3.15;2.58;;;;;;;31.26;27.67;96270.41;10337940;28;97501;-74
2022/07/16 14:18:14;;;;;;;3.28;1.98;;;;;;;31.66;27.87;96259.59;10342568;28;97287;-74
2022/07/16 14:23:17;;;;;;;2.78;1.88;;;;;;;32.37;27.08;96262.75;10343535;28;97152;-74
2022/07/16 14:28:21;;;;;;;3.00;2.35;;;;;;;33.37;25.52;96260.19;10341784;28;96934;-74
2022/07/16 14:33:24;;;;;;;3.17;1.95;;;;;;;34.19;24.85;96257.00;10338461;28;97091;-75
2022/07/16 14:38:27;;;;;;;2.35;2.10;;;;;;;34.66;24.79;96258.81;10339895;28;96811;-74
2022/07/16 14:43:32;;;;;;;3.70;2.10;;;;;;;35.17;24.04;96259.72;10330037;28;99983;-74
2022/07/16 14:48:34;;;;;;;3.55;1.83;;;;;;;35.61;23.51;96256.25;10329878;28;99530;-74
2022/07/16 14:53:39;;;;;;;2.58;1.98;;;;;;;37.08;21.82;96259.22;10344611;28;98178;-74
2022/07/16 14:58:44;;;;;;;5.82;2.00;;;;;;;37.21;21.58;96257.47;10333942;28;100287;-74
2022/07/16 15:03:48;;;;;;;2.78;2.25;;;;;;;38.28;20.66;96272.31;10327174;28;98233;-75
2022/07/16 15:08:51;;;;;;;3.95;1.98;;;;;;;38.87;19.89;96260.69;10329221;28;97898;-75
2022/07/16 15:13:56;;;;;;;3.38;1.98;;;;;;;39.18;19.66;96265.00;10332203;28;97446;-75
2022/07/16 15:18:59;;;;;;;2.65;1.90;;;;;;;40.20;18.59;96272.97;10329352;28;97177;-75
2022/07/16 15:24:02;;;;;;;3.28;1.70;;;;;;;40.63;18.64;96258.78;10330844;28;97026;-75
2022/07/16 15:29:07;;;;;;;3.30;1.92;;;;;;;40.47;18.21;96253.16;10339573;28;99272;-75
2022/07/16 15:34:12;;;;;;;2.85;1.60;;;;;;;40.46;18.28;96259.78;10335057;28;97253;-75
2022/07/16 15:39:15;;;;;;;3.00;1.90;;;;;;;40.59;18.01;96266.09;10334045;28;96893;-75
2022/07/16 15:44:19;;;;;;;2.80;1.90;;;;;;;41.07;18.19;96250.78;10345355;28;100453;-75
2022/07/16 15:49:22;;;;;;;3.03;1.80;;;;;;;40.97;17.66;96258.69;10335221;28;100454;-76
2022/07/16 15:54:25;;;;;;;3.58;1.70;;;;;;;40.97;17.59;96267.69;10330766;28;96794;-75
2022/07/16 15:59:30;;;;;;;3.78;2.10;;;;;;;40.96;17.90;96262.56;10336637;28;96885;-75
2022/07/16 16:04:33;;;;;;;2.70;1.60;;;;;;;40.96;17.63;96259.81;10338731;28;96797;-75
2022/07/16 16:09:36;;;;;;;3.30;1.80;;;;;;;41.67;17.35;96259.19;10337400;28;96828;-75
2022/07/16 16:14:40;;;;;;;3.58;1.80;;;;;;;41.89;16.76;96259.03;10338334;28;97167;-75
2022/07/16 16:19:43;;;;;;;2.03;1.80;;;;;;;42.60;16.37;96260.06;10338744;28;96869;-75
2022/07/16 16:24:46;;;;;;;1.90;1.67;;;;;;;42.89;16.22;96260.75;10338197;28;97087;-75
2022/07/16 16:29:50;;;;;;;4.90;1.95;;;;;;;43.12;16.07;96263.66;10337617;28;96987;-75
2022/07/16 16:34:53;;;;;;;2.03;1.83;;;;;;;43.06;15.56;96263.09;10338922;28;97552;-75
2022/07/16 16:39:56;;;;;;;1.80;1.55;;;;;;;43.20;15.46;96254.38;10338134;28;96821;-75
2022/07/16 16:45:00;;;;;;;2.17;1.58;;;;;;;43.68;15.00;96263.25;10338423;28;96909;-75
2022/07/16 16:50:04;;;;;;;2.80;1.88;;;;;;;43.55;15.36;96272.81;10338237;28;96998;-75
2022/07/16 16:55:08;;;;;;;4.30;1.88;;;;;;;43.21;15.43;96263.44;10337247;28;99013;-75
2022/07/16 17:00:14;;;;;;;2.60;1.58;;;;;;;43.29;15.45;96267.91;10337598;28;97033;-75
2022/07/16 17:05:17;;;;;;;2.55;1.70;;;;;;;43.63;15.15;96271.00;10337503;28;97201;-75
2022/07/16 17:10:21;;;;;;;5.53;2.28;;;;;;;43.08;15.81;96274.56;10337523;28;96732;-75
2022/07/16 17:15:26;;;;;;;3.40;1.88;;;;;;;43.36;15.78;96272.78;10337678;28;96788;-75
2022/07/16 17:20:29;;;;;;;3.03;1.90;;;;;;;43.16;15.60;96277.47;10329926;28;97728;-75
2022/07/16 17:25:33;;;;;;;2.95;1.67;;;;;;;42.75;15.70;96284.00;10337626;28;97084;-75
2022/07/16 17:30:37;;;;;;;3.50;1.77;;;;;;;41.29;16.76;96285.13;10332257;28;96957;-75
2022/07/16 17:35:40;;;;;;;2.22;1.83;;;;;;;40.98;17.43;96293.16;10328338;28;97277;-75
2022/07/16 17:40:43;;;;;;;4.10;1.70;;;;;;;41.37;17.38;96277.91;10325654;28;98255;-75
2022/07/16 17:45:47;;;;;;;3.55;2.00;;;;;;;40.76;16.96;96286.97;10343862;28;98415;-75
2022/07/16 17:50:50;;;;;;;4.22;1.83;;;;;;;39.90;17.95;96278.56;10342727;28;96889;-75
2022/07/16 17:55:53;;;;;;;2.88;1.83;;;;;;;39.89;18.39;96298.84;10347897;28;96905;-75
2022/07/16 18:00:57;;;;;;;6.22;1.95;;;;;;;39.51;18.26;96289.66;10340377;28;97849;-75
2022/07/16 18:06:00;;;;;;;3.03;2.00;;;;;;;38.99;18.52;96301.72;10341097;28;97197;-76
2022/07/16 18:11:06;;;;;;;2.63;1.98;;;;;;;38.51;19.40;96305.63;10347053;28;98509;-75
2022/07/16 18:16:11;;;;;;;4.72;2.00;;;;;;;36.13;20.96;96312.09;10349625;28;97609;-75
2022/07/16 18:21:14;;;;;;;3.85;2.17;;;;;;;34.24;22.90;96310.31;10343613;28;97544;-74
2022/07/16 18:26:17;;;;;;;2.33;2.13;;;;;;;32.90;24.93;96317.63;10348844;28;96856;-74
2022/07/16 18:31:22;;;;;;;3.38;2.17;;;;;;;31.90;26.31;96325.34;10340471;28;99685;-75
2022/07/16 18:36:25;;;;;;;4.47;3.50;;;;;;;31.17;27.04;96326.84;10338560;28;96885;-74
2022/07/16 18:41:28;;;;;;;3.75;2.22;;;;;;;30.44;27.82;96330.00;10335490;28;98284;-75
2022/07/16 18:46:32;;;;;;;;;;;;;;;29.92;27.25;96334.59;10343105;28;98494;-75
2022/07/16 18:51:35;;;;;;;2.80;2.33;;;;;;;29.47;28.06;96338.84;10341786;28;96996;-76
2022/07/16 18:56:38;;;;;;;4.75;2.47;;;;;;;29.01;28.44;96346.78;10334026;28;105261;-75
2022/07/16 19:01:42;;;;;;;;;;;;;;;28.66;28.38;96350.88;10324298;28;97649;-76
2022/07/16 19:06:45;;;;;;;4.88;2.88;;;;;;;28.24;29.37;96352.47;10332483;28;98913;-74
2022/07/16 19:11:48;;;;;;;2.70;2.10;;;;;;;27.88;29.76;96356.75;10337588;28;97005;-75
2022/07/16 19:16:53;;;;;;;3.60;2.33;;;;;;;27.57;30.46;96361.78;10352723;28;97709;-76
2022/07/16 19:21:56;;;;;;;3.58;2.25;;;;;;;27.26;30.92;96380.22;10342887;28;98479;-74
2022/07/16 19:27:00;;;;;;;5.25;2.50;;;;;;;26.95;30.98;96379.84;10341350;28;99449;-74
2022/07/16 19:32:05;;;;;;;5.03;2.55;;;;;;;26.68;31.67;96387.78;10350689;28;96756;-75
2022/07/16 19:37:08;;;;;;;4.68;2.92;;;;;;;26.48;31.73;96399.78;10346384;28;96875;-74
2022/07/16 19:42:12;;;;;;;5.35;3.10;;;;;;;26.17;31.66;96404.66;10346455;28;97389;-75
2022/07/16 19:47:16;;;;;;;4.63;2.83;;;;;;;25.99;31.77;96408.34;10350585;28;97589;-75
2022/07/16 19:52:19;;;;;;;3.60;2.10;;;;;;;25.84;31.70;96415.31;10341653;28;98806;-75
2022/07/16 20:02:44;;;;;;;4.50;2.58;;;;;;;25.34;31.50;96432.78;10351467;28;98829;-75
2022/07/16 20:07:47;;;;;;;3.63;2.10;;;;;;;25.17;31.96;96446.91;10349328;28;97619;-75
2022/07/16 20:12:50;;;;;;;2.75;2.10;;;;;;;25.03;31.26;96442.88;10341941;28;97147;-75
2022/07/16 20:17:55;;;;;;;4.07;2.13;;;;;;;24.90;31.44;96443.13;10339296;28;96913;-75
2022/07/16 20:22:58;;;;;;;2.88;2.20;;;;;;;24.73;31.75;96459.81;10321272;28;98134;-75
2022/07/16 20:28:01;;;;;;;3.10;1.80;;;;;;;24.64;31.24;96458.53;10333429;28;97921;-78
2022/07/16 20:33:05;;;;;;;3.15;2.00;;;;;;;24.54;30.89;96458.28;10336668;28;97984;-74
2022/07/16 20:38:08;;;;;;;3.30;2.00;;;;;;;24.48;31.08;96470.72;10338981;28;97728;-75
2022/07/16 20:43:11;;;;;;;3.67;2.00;;;;;;;24.39;30.99;96474.78;10328184;28;98812;-75
2022/07/16 20:48:15;;;;;;;2.67;1.80;;;;;;;24.31;30.70;96478.56;10330734;28;99289;-74
2022/07/16 20:53:19;;;;;;;2.45;1.88;;;;;;;24.24;30.64;96476.00;10332066;28;99452;-74
2022/07/16 20:58:23;;;;;;;6.90;2.10;;;;;;;24.17;31.11;96485.16;10336094;28;97139;-75
2022/07/16 21:03:27;;;;;;;2.83;1.80;;;;;;;24.13;30.64;96490.13;10333680;28;100724;-74
2022/07/16 21:08:30;;;;;;;3.10;2.03;;;;;;;24.03;30.96;96489.84;10329858;28;97027;-74
2022/07/16 21:13:33;;;;;;;2.38;1.75;;;;;;;23.92;31.57;96488.75;10330558;28;97433;-74
2022/07/16 21:18:37;;;;;;;2.15;1.95;;;;;;;23.71;31.39;96490.88;10332830;28;97748;-74
2022/07/16 21:23:40;;;;;;;4.13;1.88;;;;;;;23.66;31.56;96504.06;10328211;28;97617;-74
2022/07/16 21:28:43;;;;;;;2.80;1.98;;;;;;;23.56;32.26;96498.44;10336515;28;97210;-75
2022/07/16 21:33:47;;;;;;;5.65;2.03;;;;;;;23.45;32.30;96507.19;10328134;28;97177;-74
2022/07/16 21:38:55;;;;;;;3.72;1.90;;;;;;;23.37;32.08;96509.09;10328007;28;98623;-74
2022/07/16 21:43:58;;;;;;;3.10;2.13;;;;;;;23.27;32.08;96511.50;10330350;28;97828;-74
2022/07/16 21:49:03;;;;;;;4.57;2.20;;;;;;;23.08;32.92;96515.13;10331663;28;96775;-74
2022/07/16 21:54:05;;;;;;;3.55;1.95;;;;;;;22.85;32.61;96513.91;10329916;28;98558;-74
2022/07/16 21:59:08;;;;;;;4.63;2.15;;;;;;;22.62;33.22;96520.66;10329775;28;97470;-74
2022/07/16 22:04:12;;;;;;;3.40;2.03;;;;;;;22.42;33.80;96518.13;10335531;28;97053;-74
2022/07/16 22:09:19;;;;;;;3.05;2.22;;;;;;;22.16;34.41;96520.94;10331369;28;96788;-76
2022/07/16 22:14:22;;;;;;;3.85;1.80;;;;;;;21.88;34.99;96522.94;10327329;28;97554;-74
2022/07/16 22:24:48;;;;;;;2.53;2.05;;;;;;;21.30;35.45;96533.56;10332022;28;97052;-74
2022/07/16 22:29:52;;;;;;;2.25;1.80;;;;;;;21.17;35.57;96538.88;10340233;28;97355;-74
2022/07/16 22:34:56;;;;;;;2.80;2.05;;;;;;;20.98;36.18;96529.91;10338250;28;97078;-74
2022/07/16 22:40:01;;;;;;;;;;;;;;;20.78;36.15;96533.41;10337770;28;96975;-74
2022/07/16 22:45:06;;;;;;;2.35;1.95;;;;;;;20.60;36.52;96534.00;10334587;28;97047;-74
2022/07/16 22:50:14;;;;;;;4.05;2.05;;;;;;;20.54;37.56;96537.47;10330301;28;97277;-74
2022/07/16 22:55:17;;;;;;;5.45;2.42;;;;;;;20.41;38.72;96532.13;10339034;28;96857;-74
2022/07/16 23:00:20;;;;;;;3.42;1.90;;;;;;;20.14;39.28;96540.88;10340626;28;96867;-74
2022/07/16 23:05:25;;;;;;;2.83;2.03;;;;;;;19.97;39.27;96535.13;10343688;28;98157;-74
2022/07/16 23:10:28;;;;;;;3.97;2.15;;;;;;;19.85;39.69;96542.00;10343529;28;97765;-74
2022/07/16 23:15:31;;;;;;;2.15;1.85;;;;;;;19.65;40.25;96535.81;10343405;28;97151;-74
2022/07/16 23:20:35;;;;;;;4.07;2.08;;;;;;;19.44;41.21;96538.34;10342009;28;97411;-74
2022/07/16 23:25:38;;;;;;;;;;;;;;;19.23;40.89;96536.59;10338790;28;96877;-74
2022/07/16 23:30:41;;;;;;;2.58;2.03;;;;;;;19.20;40.82;96544.13;10338651;28;96853;-75
2022/07/16 23:35:45;;;;;;;2.45;1.80;;;;;;;19.11;41.77;96540.81;10343326;28;99152;-74
2022/07/16 23:40:48;;;;;;;3.58;1.88;;;;;;;19.00;40.98;96541.34;10334667;28;96867;-74
2022/07/16 23:45:51;;;;;;;2.58;1.90;;;;;;;18.92;42.64;96546.81;10331502;28;98492;-74
2022/07/16 23:50:56;;;;;;;3.67;2.30;;;;;;;18.91;41.07;96551.25;10347800;28;99183;-74
2022/07/16 23:55:59;;;;;;;4.07;1.70;;;;;;;18.90;41.29;96554.09;10352297;28;97997;-74
